Cedar Falls, Iowa
Current Conditions -  °F | °C
As of 5:54 AM on Monday 24 Nov 2014 (Local Time) from KALO Reporting Station
Overcast Overcast  
Wind Chill: 14°   Ceiling: 1000
Heat Index: 27°   Visibility: 10mi
Dew Point: 25°   Wind: 18mph
Humidity: 92%   Direction: 300°WNW
Pressure: 29.31"   Gusts: 32mph
Location:  42.53°N, 92.44°W
Report Text: KALO 241154Z AUTO 30016G28KT 10SM OVC010 M03/M04 A2931 RMK AO2 PK WND 31031/1102 SLP930 60018 70035 T10281039 10017 21028 53008 $
Loading
Personal Weather Stations






























Interactive Weather Map New forecast layout! Learn more

10-Day Weather Forecast

Advertisements
Track Severe Weather on mobile